Obetz, Ohio
Current Conditions -  °F | °C
As of 12:35 PM on Friday 19 Dec 2014 (Local Time) from KLCK Reporting Station
Overcast Overcast  
Wind Chill: 30°   Ceiling: 2500
Heat Index: 30°   Visibility: 7mi
Dew Point: 23°   Wind: 0mph
Humidity: 77%   Direction: NA
Pressure: 30.25"   Gusts: NA
Location:  39.8938°N, 82.9624°W
Report Text: KLCK 191735Z AUTO 00000KT 7SM OVC025 M01/M05 A3025 RMK AO2 T10131048
Loading
Personal Weather Stations






























Interactive Weather Map New forecast layout! Learn more

10-Day Weather Forecast

Advertisements
Track Severe Weather on mobile